createdAt,value
2023-03-15T00:00:18.102Z,88.24
2023-03-15T00:01:18.066Z,88.24
2023-03-15T00:02:18.159Z,88.24
2023-03-15T00:03:18.070Z,88.24
2023-03-15T00:04:18.059Z,88.24
2023-03-15T00:05:18.036Z,88.34
2023-03-15T00:06:18.027Z,88.34
2023-03-15T00:07:18.010Z,88.24
2023-03-15T00:08:18.023Z,88.13
2023-03-15T00:09:18.138Z,88.09
2023-03-15T00:10:17.954Z,88.09
2023-03-15T00:11:18.018Z,88.09
2023-03-15T00:12:17.990Z,87.68
2023-03-15T00:13:17.961Z,87.99
2023-03-15T00:14:17.923Z,87.95
2023-03-15T00:15:17.915Z,87.85
2023-03-15T00:16:18.009Z,87.54
2023-03-15T00:17:17.896Z,87.64
2023-03-15T00:18:17.944Z,87.88
2023-03-15T00:19:17.825Z,87.95
2023-03-15T00:20:17.897Z,87.99
2023-03-15T00:21:17.878Z,88.06
2023-03-15T00:22:17.923Z,88.06
2023-03-15T00:23:38.801Z,87.85
2023-03-15T00:24:17.790Z,87.99
2023-03-15T00:25:18.098Z,87.99
2023-03-15T00:26:17.855Z,87.99
2023-03-15T00:27:17.756Z,87.99
2023-03-15T00:28:17.990Z,88.20
2023-03-15T00:29:17.727Z,87.99
2023-03-15T00:30:17.845Z,87.99
2023-03-15T00:32:12.980Z,88.20
2023-03-15T00:32:18.888Z,88.45
2023-03-15T00:33:17.692Z,88.61
2023-03-15T00:34:38.665Z,88.51
2023-03-15T00:35:17.760Z,88.45
2023-03-15T00:36:17.637Z,88.20
2023-03-15T00:37:17.881Z,88.20
2023-03-15T00:38:17.653Z,88.40
2023-03-15T00:39:17.651Z,88.20
2023-03-15T00:40:17.691Z,88.40
2023-03-15T00:41:17.712Z,88.51
2023-03-15T00:42:17.540Z,88.67
2023-03-15T00:43:17.564Z,88.16
2023-03-15T00:44:17.609Z,88.06
2023-03-15T00:45:17.759Z,88.06
2023-03-15T00:46:17.614Z,87.95
2023-03-15T00:47:17.499Z,87.95
2023-03-15T00:48:17.502Z,88.16
2023-03-15T00:49:17.515Z,87.74
2023-03-15T00:50:17.503Z,87.64
2023-03-15T00:51:17.456Z,87.60
2023-03-15T00:52:17.489Z,87.49
2023-03-15T00:53:17.508Z,87.29
2023-03-15T00:54:17.409Z,87.29
2023-03-15T00:55:17.400Z,87.08
2023-03-15T00:56:17.432Z,87.02
2023-03-15T00:57:17.390Z,87.23
2023-03-15T00:58:17.338Z,87.23
2023-03-15T00:59:17.357Z,87.43
2023-03-15T01:00:17.355Z,87.33
2023-03-15T01:01:17.452Z,87.43
2023-03-15T01:02:17.358Z,87.47
2023-03-15T01:03:17.360Z,87.64
2023-03-15T01:04:17.267Z,87.64
2023-03-15T01:05:17.357Z,87.64
2023-03-15T01:06:17.432Z,87.85
2023-03-15T01:07:17.370Z,87.64
2023-03-15T01:08:17.249Z,87.78
2023-03-15T01:09:17.336Z,87.88
2023-03-15T01:10:17.207Z,87.99
2023-03-15T01:11:17.180Z,88.09
2023-03-15T01:12:17.410Z,88.09
2023-03-15T01:13:17.174Z,88.09
2023-03-15T01:14:17.139Z,87.99
2023-03-15T01:15:17.184Z,88.26
2023-03-15T01:16:17.228Z,87.95
2023-03-15T01:17:17.074Z,87.64
2023-03-15T01:18:17.115Z,87.78
2023-03-15T01:19:17.070Z,87.99
2023-03-15T01:20:17.044Z,87.99
2023-03-15T01:21:17.038Z,87.99
2023-03-15T01:22:17.200Z,87.99
2023-03-15T01:23:17.000Z,87.88
2023-03-15T01:24:17.027Z,87.99
2023-03-15T01:25:17.093Z,88.09
2023-03-15T01:26:17.002Z,88.09
2023-03-15T01:27:16.945Z,87.88
2023-03-15T01:28:16.975Z,87.99
2023-03-15T01:29:16.945Z,88.09
2023-03-15T01:30:16.962Z,88.20
2023-03-15T01:31:17.689Z,88.51
2023-03-15T01:32:16.872Z,88.09
2023-03-15T01:33:16.881Z,88.20
2023-03-15T01:34:16.950Z,88.16
2023-03-15T01:35:16.863Z,87.85
2023-03-15T01:36:16.868Z,87.74
2023-03-15T01:37:16.841Z,87.64
2023-03-15T01:38:16.839Z,87.68
2023-03-15T01:39:16.807Z,88.13
2023-03-15T01:40:16.805Z,88.09
2023-03-15T01:41:16.877Z,87.99
2023-03-15T01:42:16.742Z,88.20
2023-03-15T01:43:16.795Z,88.13
2023-03-15T01:44:16.710Z,88.03
2023-03-15T01:45:16.718Z,88.24
2023-03-15T01:46:16.798Z,88.24
2023-03-15T01:47:16.741Z,88.34
2023-03-15T01:48:16.665Z,88.13
2023-03-15T01:49:16.676Z,88.24
2023-03-15T01:50:16.681Z,88.13
2023-03-15T01:51:25.162Z,88.13
2023-03-15T01:52:16.613Z,88.13
2023-03-15T01:53:25.795Z,87.99
2023-03-15T01:54:16.615Z,87.72
2023-03-15T01:55:16.641Z,87.82
2023-03-15T01:56:16.578Z,88.03
2023-03-15T01:57:16.606Z,88.13
2023-03-15T01:58:16.544Z,87.93
2023-03-15T01:59:16.559Z,87.82
2023-03-15T02:00:16.537Z,87.72
2023-03-15T02:01:16.610Z,87.62
2023-03-15T02:02:16.750Z,87.82
2023-03-15T02:03:16.478Z,87.82
2023-03-15T02:04:16.484Z,87.72
2023-03-15T02:05:16.469Z,87.51
2023-03-15T02:06:16.468Z,87.51
2023-03-15T02:07:16.428Z,87.30
2023-03-15T02:08:16.449Z,87.51
2023-03-15T02:09:16.413Z,87.30
2023-03-15T02:10:16.386Z,87.41
2023-03-15T02:11:16.396Z,87.35
2023-03-15T02:12:16.366Z,87.41
2023-03-15T02:13:16.389Z,87.20
2023-03-15T02:14:16.331Z,87.04
2023-03-15T02:15:16.347Z,87.04
2023-03-15T02:16:16.413Z,87.14
2023-03-15T02:17:16.426Z,87.04
2023-03-15T02:18:16.276Z,87.14
2023-03-15T02:19:16.289Z,87.14
2023-03-15T02:20:16.253Z,86.83
2023-03-15T02:21:16.239Z,87.14
2023-03-15T02:22:16.264Z,87.04
2023-03-15T02:23:16.379Z,87.04
2023-03-15T02:24:16.209Z,87.14
2023-03-15T02:25:16.186Z,87.14
2023-03-15T02:26:16.235Z,87.14
2023-03-15T02:27:16.251Z,87.04
2023-03-15T02:28:16.156Z,87.14
2023-03-15T02:29:16.320Z,87.10
2023-03-15T02:30:16.120Z,86.79
2023-03-15T02:31:16.206Z,86.58
2023-03-15T02:32:16.108Z,86.52
2023-03-15T02:33:16.084Z,86.72
2023-03-15T02:34:16.183Z,86.72
2023-03-15T02:35:16.077Z,86.62
2023-03-15T02:36:16.085Z,86.62
2023-03-15T02:37:16.079Z,86.62
2023-03-15T02:38:16.024Z,86.62
2023-03-15T02:39:16.022Z,86.31
2023-03-15T02:40:16.044Z,86.31
2023-03-15T02:41:15.996Z,86.41
2023-03-15T02:42:15.975Z,86.41
2023-03-15T02:43:15.964Z,86.41
2023-03-15T02:44:16.041Z,86.31
2023-03-15T02:45:15.918Z,86.41
2023-03-15T02:46:15.969Z,86.52
2023-03-15T02:47:15.914Z,86.55
2023-03-15T02:48:15.922Z,86.72
2023-03-15T02:49:15.864Z,86.52
2023-03-15T02:50:15.944Z,86.52
2023-03-15T02:51:15.877Z,86.62
2023-03-15T02:52:15.904Z,86.45
2023-03-15T02:53:15.835Z,86.62
2023-03-15T02:54:15.796Z,86.72
2023-03-15T02:55:15.814Z,86.62
2023-03-15T02:56:15.848Z,86.52
2023-03-15T02:57:15.825Z,86.66
2023-03-15T02:58:15.789Z,86.66
2023-03-15T02:59:15.822Z,86.55
2023-03-15T03:00:15.717Z,86.66
2023-03-15T03:01:15.794Z,86.66
2023-03-15T03:02:15.765Z,86.76
2023-03-15T03:03:15.674Z,86.97
2023-03-15T03:04:15.688Z,86.87
2023-03-15T03:05:15.734Z,86.76
2023-03-15T03:06:15.674Z,86.76
2023-03-15T03:07:15.656Z,86.76
2023-03-15T03:08:15.787Z,86.97
2023-03-15T03:09:15.601Z,86.66
2023-03-15T03:10:15.597Z,86.76
2023-03-15T03:11:15.624Z,86.76
2023-03-15T03:12:15.606Z,86.55
2023-03-15T03:13:15.575Z,86.66
2023-03-15T03:14:15.593Z,86.55
2023-03-15T03:15:15.526Z,86.45
2023-03-15T03:16:15.531Z,86.41
2023-03-15T03:17:15.543Z,86.15
2023-03-15T03:18:15.533Z,86.15
2023-03-15T03:19:15.489Z,86.25
2023-03-15T03:20:15.519Z,86.35
2023-03-15T03:21:15.481Z,86.15
2023-03-15T03:22:15.439Z,86.04
2023-03-15T03:23:15.444Z,86.04
2023-03-15T03:24:15.459Z,86.04
2023-03-15T03:25:15.388Z,85.83
2023-03-15T03:26:15.428Z,85.89
2023-03-15T03:27:15.394Z,85.69
2023-03-15T03:28:16.067Z,85.52
2023-03-15T03:29:15.390Z,85.63
2023-03-15T03:30:15.393Z,85.73
2023-03-15T03:31:15.394Z,85.38
2023-03-15T03:32:15.367Z,85.27
2023-03-15T03:33:15.284Z,85.17
2023-03-15T03:34:15.265Z,85.27
2023-03-15T03:35:16.229Z,84.96
2023-03-15T03:36:15.329Z,84.96
2023-03-15T03:37:15.224Z,84.96
2023-03-15T03:38:15.265Z,84.75
2023-03-15T03:39:15.212Z,84.86
2023-03-15T03:40:15.191Z,84.75
2023-03-15T03:41:15.365Z,84.75
2023-03-15T03:42:15.212Z,84.69
2023-03-15T03:43:15.160Z,84.80
2023-03-15T03:44:15.199Z,84.65
2023-03-15T03:45:15.135Z,84.69
2023-03-15T03:46:15.139Z,84.59
2023-03-15T03:47:15.167Z,84.65
2023-03-15T03:48:15.106Z,84.34
2023-03-15T03:49:15.081Z,84.34
2023-03-15T03:50:15.157Z,84.44
2023-03-15T03:51:15.062Z,84.23
2023-03-15T03:52:15.051Z,84.23
2023-03-15T03:53:15.177Z,84.03
2023-03-15T03:54:17.528Z,84.03
2023-03-15T03:55:15.007Z,84.13
2023-03-15T03:56:15.036Z,84.03
2023-03-15T03:57:14.979Z,84.03
2023-03-15T03:58:14.968Z,83.93
2023-03-15T03:59:15.006Z,83.83
2023-03-15T04:00:14.956Z,84.03
2023-03-15T04:01:14.939Z,84.13
2023-03-15T04:02:14.978Z,83.83
2023-03-15T04:03:14.930Z,83.72
2023-03-15T04:04:14.975Z,83.83
2023-03-15T04:05:14.917Z,83.86
2023-03-15T04:06:14.913Z,83.83
2023-03-15T04:07:16.984Z,83.86
2023-03-15T04:08:14.857Z,84.07
2023-03-15T04:09:14.836Z,84.17
2023-03-15T04:10:14.982Z,84.17
2023-03-15T04:11:14.787Z,84.28
2023-03-15T04:12:14.922Z,84.38
2023-03-15T04:13:14.768Z,84.28
2023-03-15T04:14:14.790Z,84.38
2023-03-15T04:15:14.807Z,84.48
2023-03-15T04:16:14.810Z,84.52
2023-03-15T04:17:14.716Z,84.63
2023-03-15T04:18:14.746Z,84.83
2023-03-15T04:19:14.676Z,84.80
2023-03-15T04:20:14.674Z,84.48
2023-03-15T04:21:14.665Z,84.52
2023-03-15T04:22:14.654Z,84.52
2023-03-15T04:23:14.794Z,84.48
2023-03-15T04:24:14.654Z,84.38
2023-03-15T04:25:14.595Z,84.28
2023-03-15T04:26:14.583Z,84.17
2023-03-15T04:27:14.839Z,84.17
2023-03-15T04:28:14.606Z,84.28
2023-03-15T04:29:14.626Z,84.17
2023-03-15T04:30:14.645Z,83.97
2023-03-15T04:31:14.574Z,83.97
2023-03-15T04:32:14.530Z,83.97
2023-03-15T04:33:14.557Z,84.17
2023-03-15T04:34:14.489Z,83.76
2023-03-15T04:35:14.503Z,83.86
2023-03-15T04:36:14.486Z,83.86
2023-03-15T04:37:14.468Z,84.00
2023-03-15T04:38:14.470Z,84.07
2023-03-15T04:39:14.478Z,83.97
2023-03-15T04:40:14.486Z,83.97
2023-03-15T04:41:14.418Z,83.65
2023-03-15T04:42:14.425Z,83.55
2023-03-15T04:43:14.390Z,83.65
2023-03-15T04:44:14.381Z,83.65
2023-03-15T04:45:14.389Z,83.65
2023-03-15T04:46:14.419Z,83.65
2023-03-15T04:47:14.350Z,83.65
2023-03-15T04:48:14.368Z,83.65
2023-03-15T04:49:14.339Z,83.65
2023-03-15T04:50:14.301Z,83.65
2023-03-15T04:51:14.302Z,83.34
2023-03-15T04:52:14.261Z,83.65
2023-03-15T04:53:14.248Z,83.55
2023-03-15T04:54:14.315Z,83.45
2023-03-15T04:55:14.259Z,83.55
2023-03-15T04:56:14.219Z,83.65
2023-03-15T04:57:14.244Z,83.90
2023-03-15T04:58:14.201Z,83.97
2023-03-15T04:59:14.170Z,83.86
2023-03-15T05:00:14.269Z,83.86
2023-03-15T05:01:14.273Z,83.80
2023-03-15T05:02:14.152Z,84.07
2023-03-15T05:03:14.132Z,84.17
2023-03-15T05:04:14.181Z,83.97
2023-03-15T05:05:14.119Z,83.97
2023-03-15T05:06:14.068Z,83.97
2023-03-15T05:07:14.076Z,83.65
2023-03-15T05:08:14.046Z,83.76
2023-03-15T05:09:14.054Z,83.80
2023-03-15T05:10:14.055Z,83.90
2023-03-15T05:11:14.067Z,84.42
2023-03-15T05:12:13.995Z,84.31
2023-03-15T05:13:14.016Z,84.00
2023-03-15T05:14:14.037Z,84.00
2023-03-15T05:15:14.004Z,84.21
2023-03-15T05:16:14.018Z,83.90
2023-03-15T05:17:13.966Z,84.00
2023-03-15T05:18:13.931Z,84.11
2023-03-15T05:19:13.936Z,84.11
2023-03-15T05:20:13.884Z,84.11
2023-03-15T05:21:13.877Z,84.00
2023-03-15T05:22:13.866Z,83.80
2023-03-15T05:23:13.886Z,83.90
2023-03-15T05:24:13.874Z,83.90
2023-03-15T05:25:13.850Z,83.48
2023-03-15T05:26:13.898Z,83.59
2023-03-15T05:27:13.845Z,83.24
2023-03-15T05:28:13.795Z,83.24
2023-03-15T05:29:13.964Z,83.03
2023-03-15T05:30:13.784Z,82.72
2023-03-15T05:31:13.826Z,82.62
2023-03-15T05:32:13.829Z,82.45
2023-03-15T05:33:13.757Z,82.51
2023-03-15T05:34:13.786Z,82.41
2023-03-15T05:35:13.812Z,82.41
2023-03-15T05:36:13.716Z,82.31
2023-03-15T05:37:13.663Z,82.24
2023-03-15T05:38:13.882Z,82.34
2023-03-15T05:39:13.712Z,82.34
2023-03-15T05:40:13.655Z,82.45
2023-03-15T05:41:13.806Z,82.65
2023-03-15T05:42:13.605Z,82.76
2023-03-15T05:43:13.658Z,82.86
2023-03-15T05:44:13.693Z,82.86
2023-03-15T05:45:13.685Z,82.65
2023-03-15T05:46:13.573Z,82.65
2023-03-15T05:47:13.586Z,83.01
2023-03-15T05:48:13.541Z,83.17
2023-03-15T05:49:13.579Z,82.86
2023-03-15T05:50:13.521Z,82.86
2023-03-15T05:51:13.480Z,82.86
2023-03-15T05:52:13.502Z,82.86
2023-03-15T05:53:13.474Z,82.86
2023-03-15T05:54:13.477Z,82.97
2023-03-15T05:55:13.507Z,82.97
2023-03-15T05:56:13.453Z,82.97
2023-03-15T05:57:13.423Z,82.65
2023-03-15T05:58:13.458Z,82.86
2023-03-15T05:59:13.392Z,82.86
2023-03-15T06:00:13.427Z,82.76
2023-03-15T06:01:13.458Z,82.72
2023-03-15T06:02:13.465Z,82.65
2023-03-15T06:03:13.420Z,82.76
2023-03-15T06:04:13.428Z,82.55
2023-03-15T06:05:13.531Z,82.55
2023-03-15T06:06:13.355Z,82.76
2023-03-15T06:07:13.295Z,82.65
2023-03-15T06:08:13.295Z,83.22
2023-03-15T06:09:13.281Z,83.32
2023-03-15T06:10:13.239Z,83.17
2023-03-15T06:11:13.214Z,83.17
2023-03-15T06:12:13.235Z,82.97
2023-03-15T06:13:13.194Z,82.86
2023-03-15T06:14:13.210Z,82.97
2023-03-15T06:15:13.202Z,82.86
2023-03-15T06:16:13.190Z,83.07
2023-03-15T06:17:13.122Z,82.76
2023-03-15T06:18:13.190Z,82.55
2023-03-15T06:19:13.132Z,82.55
2023-03-15T06:20:13.098Z,82.62
2023-03-15T06:21:13.141Z,82.51
2023-03-15T06:22:13.097Z,82.31
2023-03-15T06:23:13.066Z,81.89
2023-03-15T06:24:13.204Z,81.89
2023-03-15T06:25:13.068Z,81.79
2023-03-15T06:26:13.012Z,81.85
2023-03-15T06:27:13.021Z,81.75
2023-03-15T06:28:12.996Z,81.65
2023-03-15T06:29:13.005Z,81.44
2023-03-15T06:30:14.409Z,81.34
2023-03-15T06:31:13.018Z,81.23
2023-03-15T06:32:12.946Z,81.54
2023-03-15T06:33:12.939Z,81.44
2023-03-15T06:34:13.021Z,81.23
2023-03-15T06:35:12.927Z,81.23
2023-03-15T06:36:12.895Z,81.44
2023-03-15T06:37:14.686Z,81.34
2023-03-15T06:38:12.893Z,81.23
2023-03-15T06:39:12.859Z,80.99
2023-03-15T06:40:12.906Z,80.78
2023-03-15T06:41:12.839Z,80.22
2023-03-15T06:42:12.809Z,80.22
2023-03-15T06:43:12.840Z,79.81
2023-03-15T06:44:12.801Z,79.67
2023-03-15T06:45:12.779Z,79.47
2023-03-15T06:46:12.840Z,79.16
2023-03-15T06:47:12.778Z,79.05
2023-03-15T06:48:12.746Z,78.85
2023-03-15T06:49:12.768Z,78.85
2023-03-15T06:50:12.764Z,78.70
2023-03-15T06:51:12.743Z,78.60
2023-03-15T06:52:12.718Z,78.22
2023-03-15T06:53:12.668Z,78.43
2023-03-15T06:54:12.723Z,78.43
2023-03-15T06:55:12.656Z,78.57
2023-03-15T06:56:12.627Z,78.88
2023-03-15T06:57:12.645Z,79.16
2023-03-15T06:58:12.655Z,78.95
2023-03-15T06:59:12.605Z,78.70
2023-03-15T07:00:12.596Z,77.98
2023-03-15T07:01:12.634Z,77.77
2023-03-15T07:02:12.580Z,77.47
2023-03-15T07:03:12.613Z,77.36
2023-03-15T07:04:12.529Z,77.15
2023-03-15T07:05:12.519Z,77.01
2023-03-15T07:06:12.550Z,76.60
2023-03-15T07:07:12.524Z,76.39
2023-03-15T07:08:12.482Z,76.29
2023-03-15T07:09:12.502Z,75.46
2023-03-15T07:10:12.466Z,75.12
2023-03-15T07:11:12.441Z,74.91
2023-03-15T07:12:12.464Z,74.57
2023-03-15T07:13:12.413Z,74.05
2023-03-15T07:14:12.449Z,73.74
2023-03-15T07:15:12.452Z,72.91
2023-03-15T07:16:12.431Z,73.02
2023-03-15T07:17:12.361Z,72.81
2023-03-15T07:18:12.360Z,72.61
2023-03-15T07:19:12.321Z,72.30
2023-03-15T07:20:12.353Z,71.78
2023-03-15T07:21:12.314Z,71.88
2023-03-15T07:22:12.291Z,71.67
2023-03-15T07:23:12.373Z,71.37
2023-03-15T07:24:12.318Z,71.30
2023-03-15T07:25:12.262Z,71.92
2023-03-15T07:26:12.341Z,72.02
2023-03-15T07:27:14.475Z,71.92
2023-03-15T07:28:12.245Z,71.57
2023-03-15T07:29:12.231Z,71.16
2023-03-15T07:30:12.403Z,71.26
2023-03-15T07:31:12.234Z,71.06
2023-03-15T07:32:12.199Z,70.75
2023-03-15T07:33:12.292Z,70.64
2023-03-15T07:34:12.182Z,70.43
2023-03-15T07:35:13.479Z,70.23
2023-03-15T07:36:12.214Z,70.30
2023-03-15T07:37:12.104Z,69.99
2023-03-15T07:38:12.078Z,69.48
2023-03-15T07:39:12.101Z,69.30
2023-03-15T07:40:12.055Z,69.20
2023-03-15T07:41:12.185Z,69.61
2023-03-15T07:42:12.075Z,69.61
2023-03-15T07:43:12.031Z,69.37
2023-03-15T07:44:12.055Z,69.37
2023-03-15T07:45:11.974Z,69.34
2023-03-15T07:46:12.212Z,68.82
2023-03-15T07:47:12.048Z,68.72
2023-03-15T07:48:11.944Z,68.41
2023-03-15T07:49:11.948Z,68.51
2023-03-15T07:50:11.974Z,68.54
2023-03-15T07:51:11.938Z,68.85
2023-03-15T07:52:11.884Z,68.41
2023-03-15T07:53:11.893Z,68.21
2023-03-15T07:54:11.913Z,68.41
2023-03-15T07:55:11.844Z,68.34
2023-03-15T07:56:11.826Z,68.27
2023-03-15T07:57:11.851Z,68.65
2023-03-15T07:58:11.854Z,68.85
2023-03-15T07:59:11.802Z,68.75
2023-03-15T08:00:11.831Z,68.30
2023-03-15T08:01:11.800Z,68.21
2023-03-15T08:02:11.789Z,68.21
2023-03-15T08:03:11.833Z,68.07
2023-03-15T08:04:11.742Z,67.86
2023-03-15T08:05:11.732Z,67.73
2023-03-15T08:06:11.790Z,67.03
2023-03-15T08:07:11.673Z,67.69
2023-03-15T08:08:11.654Z,68.10
2023-03-15T08:09:11.661Z,68.62
2023-03-15T08:10:11.700Z,68.30
2023-03-15T08:11:11.623Z,68.41
2023-03-15T08:12:11.630Z,68.41
2023-03-15T08:13:11.828Z,68.21
2023-03-15T08:14:11.601Z,68.21
2023-03-15T08:15:11.572Z,68.17
2023-03-15T08:16:11.664Z,67.97
2023-03-15T08:17:11.646Z,67.55
2023-03-15T08:18:11.582Z,67.24
2023-03-15T08:19:11.541Z,66.91
2023-03-15T08:20:11.770Z,66.70
2023-03-15T08:21:11.492Z,66.49
2023-03-15T08:22:11.476Z,66.60
2023-03-15T08:23:11.491Z,66.67
2023-03-15T08:24:11.462Z,66.56
2023-03-15T08:25:11.441Z,66.39
2023-03-15T08:26:11.465Z,66.60
2023-03-15T08:27:11.477Z,66.56
2023-03-15T08:28:11.389Z,66.22
2023-03-15T08:29:11.381Z,65.61
2023-03-15T08:30:11.401Z,65.61
2023-03-15T08:31:11.425Z,65.74
2023-03-15T08:32:11.341Z,66.43
2023-03-15T08:33:11.343Z,66.30
2023-03-15T08:34:11.353Z,65.47
2023-03-15T08:35:12.334Z,65.16
2023-03-15T08:36:11.390Z,64.75
2023-03-15T08:37:11.305Z,64.75
2023-03-15T08:38:11.277Z,64.54
2023-03-15T08:39:11.246Z,64.37
2023-03-15T08:40:11.292Z,64.27
2023-03-15T08:41:11.220Z,64.37
2023-03-15T08:42:11.251Z,64.24
2023-03-15T08:43:11.239Z,63.69
2023-03-15T08:44:11.196Z,63.62
2023-03-15T08:45:11.168Z,64.03
2023-03-15T08:46:11.251Z,64.27
2023-03-15T08:47:11.158Z,64.58
2023-03-15T08:48:11.168Z,64.34
2023-03-15T08:49:11.140Z,64.27
2023-03-15T08:50:11.192Z,64.27
2023-03-15T08:51:11.109Z,64.37
2023-03-15T08:52:11.079Z,64.24
2023-03-15T08:53:11.105Z,64.14
2023-03-15T08:54:11.118Z,64.03
2023-03-15T08:55:11.072Z,64.44
2023-03-15T08:56:11.023Z,64.86
2023-03-15T08:57:11.035Z,64.62
2023-03-15T08:58:11.000Z,64.51
2023-03-15T08:59:12.812Z,64.21
2023-03-15T09:00:11.073Z,63.97
2023-03-15T09:01:10.954Z,63.56
2023-03-15T09:02:11.001Z,63.28
2023-03-15T09:03:10.993Z,63.52
2023-03-15T09:04:10.962Z,63.62
2023-03-15T09:05:10.898Z,63.93
2023-03-15T09:06:10.958Z,63.79
2023-03-15T09:07:10.939Z,63.59
2023-03-15T09:08:10.854Z,63.56
2023-03-15T09:09:10.842Z,63.59
2023-03-15T09:10:10.936Z,63.90
2023-03-15T09:11:10.839Z,64.14
2023-03-15T09:12:10.833Z,64.54
2023-03-15T09:13:10.783Z,65.06
2023-03-15T09:14:10.792Z,64.86
2023-03-15T09:15:10.757Z,64.37
2023-03-15T09:16:10.761Z,63.68
2023-03-15T09:17:10.858Z,63.57
2023-03-15T09:18:10.792Z,63.17
2023-03-15T09:19:10.737Z,62.82
2023-03-15T09:20:10.764Z,62.59
2023-03-15T09:21:10.684Z,62.28
2023-03-15T09:22:16.645Z,62.35
2023-03-15T09:23:11.734Z,62.35
2023-03-15T09:24:10.645Z,62.56
2023-03-15T09:25:10.671Z,61.81
2023-03-15T09:26:10.657Z,61.40
2023-03-15T09:27:10.615Z,60.58
2023-03-15T09:28:10.608Z,60.03
2023-03-15T09:29:10.666Z,58.59
2023-03-15T09:30:10.587Z,58.91
2023-03-15T09:31:10.657Z,58.70
2023-03-15T09:32:10.591Z,58.36
2023-03-15T09:33:10.628Z,58.26
2023-03-15T09:34:10.597Z,58.06
2023-03-15T09:35:10.544Z,57.64
2023-03-15T09:36:10.586Z,58.59
2023-03-15T09:37:10.495Z,59.42
2023-03-15T09:38:10.518Z,59.63
2023-03-15T09:39:10.559Z,59.91
2023-03-15T09:40:10.449Z,59.06
2023-03-15T09:41:10.474Z,58.95
2023-03-15T09:42:10.465Z,57.85
2023-03-15T09:43:10.392Z,57.03
2023-03-15T09:44:10.400Z,57.16
2023-03-15T09:45:10.414Z,57.50
2023-03-15T09:46:10.406Z,57.80
2023-03-15T09:47:10.359Z,58.62
2023-03-15T09:48:10.415Z,58.96
2023-03-15T09:49:10.350Z,59.24
2023-03-15T09:50:10.349Z,58.86
2023-03-15T09:51:10.382Z,59.17
2023-03-15T09:52:10.327Z,59.27
2023-03-15T09:53:10.298Z,59.27
2023-03-15T09:54:10.325Z,59.19
2023-03-15T09:55:10.258Z,59.70
2023-03-15T09:56:10.240Z,60.22
2023-03-15T09:57:10.238Z,60.33
2023-03-15T09:58:10.209Z,60.87
2023-03-15T09:59:10.270Z,60.56
2023-03-15T10:00:10.363Z,60.66
2023-03-15T10:01:10.177Z,61.18
2023-03-15T10:02:10.179Z,61.05
2023-03-15T10:03:10.140Z,61.18
2023-03-15T10:04:10.136Z,61.28
2023-03-15T10:05:10.149Z,61.80
2023-03-15T10:06:10.108Z,62.03
2023-03-15T10:07:10.091Z,62.24
2023-03-15T10:08:10.097Z,62.44
2023-03-15T10:09:10.052Z,62.75
2023-03-15T10:10:10.052Z,62.75
2023-03-15T10:11:10.102Z,62.31
2023-03-15T10:12:10.051Z,61.66
2023-03-15T10:13:10.050Z,61.25
2023-03-15T10:14:10.006Z,61.02
2023-03-15T10:15:09.973Z,60.61
2023-03-15T10:16:10.105Z,60.50
2023-03-15T10:17:10.070Z,60.58
2023-03-15T10:18:10.000Z,60.03
2023-03-15T10:19:09.983Z,59.86
2023-03-15T10:20:09.908Z,60.06
2023-03-15T10:21:09.932Z,59.24
2023-03-15T10:22:09.939Z,59.06
2023-03-15T10:23:09.910Z,59.47
2023-03-15T10:24:09.889Z,59.06
2023-03-15T10:25:09.865Z,59.47
2023-03-15T10:26:09.839Z,59.58
2023-03-15T10:27:09.831Z,59.17
2023-03-15T10:28:09.837Z,58.96
2023-03-15T10:29:09.922Z,59.17
2023-03-15T10:30:09.798Z,59.14
2023-03-15T10:31:09.812Z,59.03
2023-03-15T10:32:09.803Z,58.50
2023-03-15T10:33:09.736Z,58.59
2023-03-15T10:34:09.773Z,59.11
2023-03-15T10:35:09.748Z,59.22
2023-03-15T10:36:11.569Z,59.01
2023-03-15T10:37:09.693Z,58.93
2023-03-15T10:38:09.737Z,58.96
2023-03-15T10:39:09.652Z,59.27
2023-03-15T10:40:09.662Z,59.47
2023-03-15T10:41:10.013Z,59.89
2023-03-15T10:42:09.611Z,60.50
2023-03-15T10:43:10.282Z,61.22
2023-03-15T10:44:09.592Z,61.77
2023-03-15T10:45:09.632Z,62.59
2023-03-15T10:46:09.610Z,63.75
2023-03-15T10:47:22.688Z,65.02
2023-03-15T10:48:10.564Z,66.70
2023-03-15T10:49:09.546Z,67.73
2023-03-15T10:50:09.550Z,68.24
2023-03-15T10:51:09.559Z,68.38
2023-03-15T10:52:09.511Z,68.69
2023-03-15T10:53:09.472Z,69.41
2023-03-15T10:54:09.517Z,70.00
2023-03-15T10:55:09.484Z,69.27
2023-03-15T10:56:09.461Z,69.59
2023-03-15T10:57:09.475Z,70.51
2023-03-15T10:58:09.449Z,70.62
2023-03-15T10:59:12.774Z,71.44
2023-03-15T11:00:09.553Z,71.47
2023-03-15T11:01:09.353Z,72.09
2023-03-15T11:02:09.457Z,72.81
2023-03-15T11:03:09.400Z,73.36
2023-03-15T11:04:09.336Z,74.19
2023-03-15T11:05:09.337Z,74.74
2023-03-15T11:06:09.308Z,75.15
2023-03-15T11:07:09.298Z,75.63
2023-03-15T11:08:09.317Z,75.53
2023-03-15T11:09:09.325Z,76.25
2023-03-15T11:10:09.320Z,76.39
2023-03-15T11:11:09.236Z,76.60
2023-03-15T11:12:09.238Z,76.94
2023-03-15T11:13:09.274Z,77.04
2023-03-15T11:14:09.189Z,77.46
2023-03-15T11:15:09.198Z,77.77
2023-03-15T11:16:09.323Z,77.87
2023-03-15T11:17:09.166Z,77.63
2023-03-15T11:18:09.588Z,77.63
2023-03-15T11:19:09.233Z,77.63
2023-03-15T11:20:09.135Z,77.73
2023-03-15T11:21:09.089Z,77.49
2023-03-15T11:22:09.177Z,76.87
2023-03-15T11:23:09.098Z,77.39
2023-03-15T11:24:09.058Z,77.28
2023-03-15T11:25:09.225Z,77.08
2023-03-15T11:26:09.620Z,77.01
2023-03-15T11:27:09.039Z,76.81
2023-03-15T11:28:09.036Z,76.53
2023-03-15T11:29:09.037Z,76.53
2023-03-15T11:30:09.016Z,76.64
2023-03-15T11:31:09.060Z,76.70
2023-03-15T11:32:08.989Z,76.70
2023-03-15T11:33:08.996Z,76.67
2023-03-15T11:34:08.941Z,76.98
2023-03-15T11:35:09.002Z,76.73
2023-03-15T11:36:10.605Z,76.77
2023-03-15T11:37:10.342Z,76.98
2023-03-15T11:38:15.210Z,77.18
2023-03-15T11:39:09.852Z,76.35
2023-03-15T11:40:12.142Z,76.15
2023-03-15T11:41:08.818Z,76.70
2023-03-15T11:42:11.009Z,76.98
2023-03-15T11:43:08.878Z,77.32
2023-03-15T11:44:08.801Z,77.39
2023-03-15T11:45:08.766Z,77.01
2023-03-15T11:46:08.881Z,77.42
2023-03-15T11:47:08.749Z,77.63
2023-03-15T11:48:08.718Z,77.42
2023-03-15T11:49:08.778Z,77.42
2023-03-15T11:50:08.728Z,76.90
2023-03-15T11:51:08.677Z,77.01
2023-03-15T11:52:08.717Z,77.42
2023-03-15T11:53:08.674Z,77.63
2023-03-15T11:54:08.701Z,77.53
2023-03-15T11:55:08.645Z,77.53
2023-03-15T11:56:08.658Z,77.11
2023-03-15T11:57:08.615Z,77.49
2023-03-15T11:58:08.616Z,77.49
2023-03-15T11:59:08.590Z,77.59
2023-03-15T12:00:08.665Z,77.49
2023-03-15T12:01:08.557Z,77.59
2023-03-15T12:02:08.583Z,77.70
2023-03-15T12:03:08.534Z,77.87
2023-03-15T12:04:08.606Z,77.76
2023-03-15T12:05:17.889Z,77.66
2023-03-15T12:06:09.559Z,76.94
2023-03-15T12:07:08.508Z,76.98
2023-03-15T12:08:08.493Z,77.80
2023-03-15T12:09:08.443Z,77.94
2023-03-15T12:10:08.472Z,78.66
2023-03-15T12:11:08.408Z,79.01
2023-03-15T12:12:08.413Z,79.80
2023-03-15T12:13:08.446Z,79.73
2023-03-15T12:14:08.424Z,80.15
2023-03-15T12:15:08.415Z,80.35
2023-03-15T12:16:08.597Z,80.76
2023-03-15T12:17:08.364Z,80.97
2023-03-15T12:18:08.344Z,80.97
2023-03-15T12:19:08.385Z,81.18
2023-03-15T12:20:08.394Z,81.49
2023-03-15T12:21:08.411Z,81.80
2023-03-15T12:22:08.286Z,82.21
2023-03-15T12:23:08.326Z,81.66
2023-03-15T12:24:08.304Z,81.56
2023-03-15T12:25:08.411Z,81.62
2023-03-15T12:26:08.331Z,81.51
2023-03-15T12:27:08.261Z,81.07
2023-03-15T12:28:08.455Z,79.93
2023-03-15T12:29:08.212Z,79.45
2023-03-15T12:30:08.181Z,79.76
2023-03-15T12:31:08.344Z,79.97
2023-03-15T12:32:08.280Z,79.93
2023-03-15T12:33:08.241Z,80.04
2023-03-15T12:34:08.272Z,79.11
2023-03-15T12:35:08.260Z,78.38
2023-03-15T12:36:08.198Z,78.38
2023-03-15T12:37:08.151Z,78.59
2023-03-15T12:38:08.101Z,78.14
2023-03-15T12:39:08.089Z,78.14
2023-03-15T12:40:08.139Z,77.62
2023-03-15T12:41:08.058Z,77.42
2023-03-15T12:42:08.020Z,77.48
2023-03-15T12:43:08.090Z,77.28
2023-03-15T12:44:08.006Z,77.08
2023-03-15T12:45:07.978Z,76.66
2023-03-15T12:46:08.066Z,76.97
2023-03-15T12:47:07.973Z,76.76
2023-03-15T12:48:08.053Z,76.80
2023-03-15T12:49:07.961Z,77.31
2023-03-15T12:50:07.935Z,76.80
2023-03-15T12:51:07.868Z,76.63
2023-03-15T12:52:15.561Z,76.84